createdAt,value
2018-07-05T00:03:36.892Z,1.90
2018-07-05T00:13:58.400Z,1.57
2018-07-05T00:24:19.848Z,1.50
2018-07-05T00:34:41.443Z,1.40
2018-07-05T00:45:02.796Z,1.50
2018-07-05T00:55:24.311Z,1.67
2018-07-05T01:05:47.028Z,1.50
2018-07-05T01:16:08.481Z,1.60
2018-07-05T01:26:29.826Z,1.60
2018-07-05T01:36:51.218Z,1.60
2018-07-05T01:47:12.558Z,1.33
2018-07-05T01:57:34.499Z,1.50
2018-07-05T02:07:56.153Z,1.57
2018-07-05T02:18:18.112Z,1.70
2018-07-05T02:28:39.917Z,1.50
2018-07-05T02:39:06.779Z,1.57
2018-07-05T02:49:28.311Z,1.47
2018-07-05T02:59:49.655Z,1.50
2018-07-05T03:10:11.542Z,1.43
2018-07-05T03:20:33.096Z,1.60
2018-07-05T03:30:55.632Z,1.60
2018-07-05T03:41:16.980Z,1.50
2018-07-05T03:51:39.419Z,1.50
2018-07-05T04:02:00.774Z,1.33
2018-07-05T04:12:22.648Z,1.60
2018-07-05T04:22:44.215Z,1.30
2018-07-05T04:33:05.586Z,1.50
2018-07-05T04:43:27.006Z,1.60
2018-07-05T04:53:48.733Z,1.50
2018-07-05T05:04:10.472Z,1.73
2018-07-05T05:14:31.973Z,1.37
2018-07-05T05:24:53.368Z,1.60
2018-07-05T05:35:14.916Z,1.50
2018-07-05T05:45:36.532Z,1.40
2018-07-05T05:55:58.384Z,1.37
2018-07-05T06:06:19.830Z,1.37
2018-07-05T06:16:41.532Z,1.20
2018-07-05T06:27:03.007Z,1.50
2018-07-05T06:37:24.613Z,1.50
2018-07-05T06:47:46.063Z,1.50
2018-07-05T06:58:07.610Z,1.40
2018-07-05T07:08:29.358Z,1.50
2018-07-05T07:18:51.006Z,1.30
2018-07-05T07:29:12.542Z,1.53
2018-07-05T07:39:33.892Z,1.30
2018-07-05T07:49:36.719Z,1.37
2018-07-05T07:59:40.392Z,1.40
2018-07-05T08:09:43.314Z,1.30
2018-07-05T08:19:46.067Z,1.30
2018-07-05T08:29:48.823Z,1.40
2018-07-05T08:39:51.690Z,1.30
2018-07-05T08:49:54.659Z,1.30
2018-07-05T08:59:57.833Z,1.23
2018-07-05T09:10:00.591Z,1.23
2018-07-05T09:20:03.566Z,1.50
2018-07-05T09:30:06.481Z,1.47
2018-07-05T09:40:09.230Z,1.30
2018-07-05T09:50:13.402Z,1.30
2018-07-05T10:00:16.312Z,1.30
2018-07-05T10:10:19.075Z,1.40
2018-07-05T10:20:21.830Z,1.47
2018-07-05T10:30:43.462Z,1.30
2018-07-05T10:41:04.951Z,1.50
2018-07-05T10:51:26.443Z,1.40
2018-07-05T11:01:48.142Z,1.50
2018-07-05T11:12:09.593Z,1.40
2018-07-05T11:22:31.102Z,1.40
2018-07-05T11:32:52.712Z,1.40
2018-07-05T11:43:14.259Z,1.40
2018-07-05T11:53:35.878Z,1.23
2018-07-05T12:03:51.725Z,1.30
2018-07-05T12:14:13.455Z,1.20
2018-07-05T12:24:34.907Z,1.67
2018-07-05T12:34:56.319Z,1.40
2018-07-05T12:45:17.670Z,1.40
2018-07-05T12:55:39.302Z,1.40
2018-07-05T13:06:01.104Z,1.40
2018-07-05T13:16:23.619Z,1.47
2018-07-05T13:26:45.006Z,1.40
2018-07-05T13:37:06.629Z,1.50
2018-07-05T13:47:28.147Z,1.30
2018-07-05T13:57:49.921Z,1.50
2018-07-05T14:08:11.394Z,1.40
2018-07-05T14:18:33.031Z,1.47
2018-07-05T14:28:54.679Z,1.30
2018-07-05T14:39:16.061Z,1.40
2018-07-05T14:49:37.467Z,1.50
2018-07-05T14:59:59.020Z,1.50
2018-07-05T15:10:20.501Z,1.40
2018-07-05T15:20:42.063Z,1.40
2018-07-05T15:31:03.595Z,1.50
2018-07-05T15:41:25.022Z,1.50
2018-07-05T15:51:46.459Z,1.53
2018-07-05T16:02:07.834Z,1.57
2018-07-05T16:12:29.535Z,1.60
2018-07-05T16:22:51.207Z,1.50
2018-07-05T16:33:12.735Z,1.50
2018-07-05T16:43:34.235Z,1.53
2018-07-05T16:53:55.690Z,1.40
2018-07-05T17:04:18.159Z,1.50
2018-07-05T17:14:39.947Z,1.80
2018-07-05T17:25:02.720Z,1.60
2018-07-05T17:35:24.031Z,1.70
2018-07-05T17:45:45.644Z,1.60
2018-07-05T17:56:07.010Z,1.80
2018-07-05T18:06:28.409Z,1.77
2018-07-05T18:16:51.479Z,1.80
2018-07-05T18:27:13.058Z,1.90
2018-07-05T18:37:35.379Z,1.70
2018-07-05T18:47:56.811Z,1.70
2018-07-05T18:58:19.593Z,1.60
2018-07-05T19:08:40.985Z,1.70
2018-07-05T19:19:02.479Z,1.87
2018-07-05T19:29:25.163Z,1.90
2018-07-05T19:39:46.760Z,1.80
2018-07-05T19:50:08.437Z,1.90
2018-07-05T20:00:29.926Z,1.90
2018-07-05T20:10:55.587Z,1.73
2018-07-05T20:21:17.152Z,1.90
2018-07-05T20:31:38.739Z,1.90
2018-07-05T20:42:00.561Z,1.90
2018-07-05T20:52:22.348Z,1.80
2018-07-05T21:02:43.704Z,1.87
2018-07-05T21:13:05.087Z,1.90
2018-07-05T21:23:26.800Z,1.70
2018-07-05T21:33:48.306Z,2.00
2018-07-05T21:44:09.769Z,1.80
2018-07-05T21:54:31.319Z,1.97
2018-07-05T22:04:53.223Z,2.07
2018-07-05T22:15:14.765Z,1.90
2018-07-05T22:25:41.436Z,1.70
2018-07-05T22:36:03.027Z,1.80
2018-07-05T22:46:24.723Z,1.80
2018-07-05T22:56:46.441Z,2.10
2018-07-05T23:07:08.040Z,1.80
2018-07-05T23:17:29.740Z,1.80
2018-07-05T23:27:51.204Z,1.70
2018-07-05T23:38:12.552Z,1.83
2018-07-05T23:48:33.925Z,1.80
2018-07-05T23:58:55.283Z,1.90
